createdAt,value
2018-04-19T00:03:57.839Z,16.29
2018-04-19T00:06:37.858Z,16.03
2018-04-19T00:09:16.211Z,15.93
2018-04-19T00:11:54.830Z,16.07
2018-04-19T00:14:37.006Z,16.21
2018-04-19T00:17:16.202Z,15.90
2018-04-19T00:19:59.272Z,15.73
2018-04-19T00:22:37.839Z,15.91
2018-04-19T00:25:17.016Z,16.08
2018-04-19T00:27:57.734Z,15.91
2018-04-19T00:30:36.368Z,16.20
2018-04-19T00:33:15.856Z,16.51
2018-04-19T00:35:56.326Z,16.83
2018-04-19T00:38:34.976Z,16.39
2018-04-19T00:41:13.710Z,16.11
2018-04-19T00:43:53.317Z,15.94
2018-04-19T00:46:31.751Z,16.11
2018-04-19T00:49:10.356Z,16.10
2018-04-19T00:51:49.098Z,16.35
2018-04-19T00:54:27.733Z,15.93
2018-04-19T00:57:06.596Z,16.18
2018-04-19T00:59:45.199Z,15.93
2018-04-19T01:02:23.599Z,15.81
2018-04-19T01:05:02.170Z,16.45
2018-04-19T01:07:44.471Z,16.79
2018-04-19T01:10:23.370Z,16.61
2018-04-19T01:13:02.659Z,16.77
2018-04-19T01:15:41.779Z,16.50
2018-04-19T01:18:21.170Z,15.96
2018-04-19T01:21:04.429Z,16.09
2018-04-19T01:23:42.991Z,16.11
2018-04-19T01:26:23.615Z,16.25
2018-04-19T01:29:07.256Z,16.49
2018-04-19T01:31:45.905Z,15.97
2018-04-19T01:34:27.232Z,16.85
2018-04-19T01:37:06.968Z,16.80
2018-04-19T01:39:45.408Z,16.30
2018-04-19T01:42:26.566Z,16.41
2018-04-19T01:45:05.150Z,16.16
2018-04-19T01:47:43.922Z,16.19
2018-04-19T01:50:23.682Z,16.34
2018-04-19T01:53:03.131Z,16.36
2018-04-19T01:55:42.701Z,16.26
2018-04-19T01:58:21.289Z,16.30
2018-04-19T02:01:00.114Z,16.50
2018-04-19T02:03:39.353Z,16.24
2018-04-19T02:06:18.602Z,16.63
2018-04-19T02:08:56.989Z,16.22
2018-04-19T02:11:36.122Z,16.23
2018-04-19T02:14:15.495Z,16.48
2018-04-19T02:16:54.858Z,16.56
2018-04-19T02:19:38.235Z,16.34
2018-04-19T02:22:17.889Z,16.22
2018-04-19T02:24:56.191Z,16.50
2018-04-19T02:27:35.330Z,16.38
2018-04-19T02:30:13.398Z,16.17
2018-04-19T02:32:51.841Z,16.47
2018-04-19T02:35:34.077Z,16.29
2018-04-19T02:38:13.443Z,16.31
2018-04-19T02:40:51.702Z,16.54
2018-04-19T02:43:32.783Z,16.52
2018-04-19T02:46:11.173Z,16.41
2018-04-19T02:48:49.879Z,16.44
2018-04-19T02:51:28.591Z,16.66
2018-04-19T02:54:07.134Z,16.50
2018-04-19T02:56:46.747Z,16.23
2018-04-19T02:59:26.144Z,16.63
2018-04-19T03:02:05.227Z,16.43
2018-04-19T03:04:43.664Z,16.15
2018-04-19T03:07:28.231Z,15.90
2018-04-19T03:10:07.037Z,16.25
2018-04-19T03:12:46.549Z,16.32
2018-04-19T03:15:25.417Z,16.19
2018-04-19T03:18:04.786Z,15.92
2018-04-19T03:20:43.656Z,16.34
2018-04-19T03:23:23.040Z,15.99
2018-04-19T03:26:01.520Z,16.01
2018-04-19T03:28:40.579Z,15.99
2018-04-19T03:31:22.630Z,16.02
2018-04-19T03:34:02.054Z,16.35
2018-04-19T03:36:41.467Z,16.59
2018-04-19T03:39:23.525Z,16.44
2018-04-19T03:42:02.088Z,17.35
2018-04-19T03:44:40.678Z,17.28
2018-04-19T03:47:23.401Z,17.08
2018-04-19T03:50:02.793Z,16.86
2018-04-19T03:52:41.496Z,16.67
2018-04-19T03:55:23.220Z,16.58
2018-04-19T03:58:01.784Z,16.79
2018-04-19T04:00:40.887Z,17.04
2018-04-19T04:03:25.612Z,16.92
2018-04-19T04:06:03.873Z,16.62
2018-04-19T04:08:42.308Z,16.41
2018-04-19T04:11:26.939Z,16.89
2018-04-19T04:14:06.350Z,16.86
2018-04-19T04:18:14.215Z,17.15
2018-04-19T04:21:22.138Z,16.46
2018-04-19T04:24:03.899Z,16.77
2018-04-19T04:26:45.519Z,16.62
2018-04-19T04:29:25.164Z,16.57
2018-04-19T04:32:03.854Z,16.65
2018-04-19T04:34:44.119Z,16.42
2018-04-19T04:37:25.633Z,16.44
2018-04-19T04:40:06.713Z,16.33
2018-04-19T04:42:48.611Z,16.51
2018-04-19T04:45:28.752Z,16.66
2018-04-19T04:48:14.460Z,16.42
2018-04-19T04:50:52.952Z,17.12
2018-04-19T04:53:33.989Z,16.72
2018-04-19T04:56:13.050Z,16.62
2018-04-19T04:58:51.378Z,17.07
2018-04-19T05:01:33.593Z,17.06
2018-04-19T05:04:12.894Z,16.46
2018-04-19T05:06:54.987Z,17.08
2018-04-19T05:09:33.228Z,18.02
2018-04-19T05:12:11.840Z,17.19
2018-04-19T05:14:56.188Z,17.60
2018-04-19T05:17:34.659Z,17.52
2018-04-19T05:20:14.305Z,16.86
2018-04-19T05:22:56.602Z,16.53
2018-04-19T05:25:34.980Z,15.72
2018-04-19T05:28:15.451Z,16.23
2018-04-19T05:30:55.328Z,16.74
2018-04-19T05:33:33.645Z,17.10
2018-04-19T05:36:18.985Z,17.09
2018-04-19T05:38:57.961Z,17.08
2018-04-19T05:41:41.765Z,17.19
2018-04-19T05:44:19.980Z,16.32
2018-04-19T05:46:58.856Z,17.06
2018-04-19T05:49:44.773Z,16.09
2018-04-19T05:52:34.909Z,15.68
2018-04-19T05:55:18.705Z,15.74
2018-04-19T05:57:59.566Z,15.56
2018-04-19T06:00:41.201Z,14.88
2018-04-19T06:03:23.043Z,14.88
2018-04-19T06:06:01.384Z,15.81
2018-04-19T06:08:43.068Z,15.94
2018-04-19T06:11:21.857Z,15.04
2018-04-19T06:14:11.045Z,15.27
2018-04-19T06:16:55.434Z,15.45
2018-04-19T06:19:39.416Z,15.14
2018-04-19T06:22:21.494Z,14.84
2018-04-19T06:25:01.351Z,15.62
2018-04-19T06:27:43.887Z,15.61
2018-04-19T06:30:22.823Z,15.14
2018-04-19T06:33:01.449Z,14.63
2018-04-19T06:35:43.093Z,15.33
2018-04-19T06:38:22.134Z,14.64
2018-04-19T06:43:59.572Z,14.90
2018-04-19T06:46:47.486Z,14.97
2018-04-19T06:49:26.054Z,14.36
2018-04-19T06:52:07.477Z,13.50
2018-04-19T06:54:48.714Z,13.92
2018-04-19T06:57:27.891Z,13.52
2018-04-19T07:00:10.127Z,14.21
2018-04-19T07:02:49.185Z,14.32
2018-04-19T07:05:28.613Z,13.18
2018-04-19T07:08:08.727Z,13.16
2018-04-19T07:10:48.128Z,13.07
2018-04-19T07:13:26.511Z,12.74
2018-04-19T07:16:08.485Z,12.60
2018-04-19T07:18:47.965Z,12.88
2018-04-19T07:21:26.302Z,12.34
2018-04-19T07:24:10.630Z,12.95
2018-04-19T07:26:49.153Z,12.95
2018-04-19T07:29:27.724Z,12.67
2018-04-19T07:32:09.423Z,12.67
2018-04-19T07:34:48.434Z,12.37
2018-04-19T07:37:31.502Z,12.50
2018-04-19T07:40:09.948Z,12.58
2018-04-19T07:42:50.447Z,12.22
2018-04-19T07:45:29.861Z,11.92
2018-04-19T07:48:09.816Z,11.59
2018-04-19T07:50:52.464Z,12.07
2018-04-19T07:53:30.824Z,11.82
2018-04-19T07:56:11.792Z,11.58
2018-04-19T07:58:50.964Z,11.37
2018-04-19T08:01:35.839Z,11.07
2018-04-19T08:04:14.525Z,11.43
2018-04-19T08:06:52.776Z,11.48
2018-04-19T08:09:34.593Z,11.19
2018-04-19T08:12:12.894Z,10.52
2018-04-19T08:14:53.782Z,9.96
2018-04-19T08:17:34.484Z,9.77
2018-04-19T08:20:14.953Z,10.40
2018-04-19T08:22:57.973Z,10.23
2018-04-19T08:25:36.429Z,9.31
2018-04-19T08:28:16.516Z,8.75
2018-04-19T08:30:56.889Z,9.13
2018-04-19T08:33:35.341Z,9.36
2018-04-19T08:36:14.663Z,9.45
2018-04-19T08:38:57.892Z,9.39
2018-04-19T08:41:35.881Z,9.48
2018-04-19T08:44:17.179Z,8.92
2018-04-19T08:46:57.344Z,9.53
2018-04-19T08:49:38.176Z,8.91
2018-04-19T08:52:19.491Z,9.26
2018-04-19T08:54:57.835Z,9.26
2018-04-19T08:57:40.529Z,9.19
2018-04-19T09:00:19.655Z,8.65
2018-04-19T09:02:58.081Z,8.50
2018-04-19T09:05:39.374Z,8.43
2018-04-19T09:08:20.297Z,8.40
2018-04-19T09:10:59.765Z,7.74
2018-04-19T09:13:43.875Z,7.65
2018-04-19T09:16:22.654Z,7.19
2018-04-19T09:19:03.051Z,7.66
2018-04-19T09:21:44.555Z,7.93
2018-04-19T09:24:22.757Z,7.55
2018-04-19T09:27:02.929Z,7.94
2018-04-19T09:29:43.832Z,7.74
2018-04-19T09:32:22.497Z,7.36
2018-04-19T09:35:04.118Z,7.21
2018-04-19T09:37:43.652Z,7.63
2018-04-19T09:40:23.752Z,8.01
2018-04-19T09:43:09.019Z,7.34
2018-04-19T09:45:47.917Z,7.36
2018-04-19T09:48:29.294Z,7.89
2018-04-19T09:51:08.699Z,7.65
2018-04-19T09:53:47.424Z,7.47
2018-04-19T09:56:29.756Z,7.44
2018-04-19T09:59:14.046Z,8.16
2018-04-19T10:01:52.638Z,7.56
2018-04-19T10:04:31.361Z,7.67
2018-04-19T10:07:10.526Z,7.57
2018-04-19T10:09:49.505Z,7.30
2018-04-19T10:12:31.117Z,8.38
2018-04-19T10:15:09.463Z,7.86
2018-04-19T10:17:49.817Z,7.03
2018-04-19T10:20:33.934Z,6.54
2018-04-19T10:23:12.351Z,6.94
2018-04-19T10:25:51.818Z,6.44
2018-04-19T10:28:34.683Z,6.59
2018-04-19T10:31:13.044Z,7.17
2018-04-19T10:33:51.318Z,7.44
2018-04-19T10:36:33.376Z,7.41
2018-04-19T10:39:13.180Z,6.28
2018-04-19T10:41:52.348Z,6.30
2018-04-19T10:44:33.340Z,6.01
2018-04-19T10:47:11.979Z,6.70
2018-04-19T10:49:51.150Z,6.92
2018-04-19T10:52:33.646Z,7.71
2018-04-19T10:55:12.069Z,6.96
2018-04-19T10:57:55.543Z,6.71
2018-04-19T11:00:34.616Z,6.40
2018-04-19T11:03:19.430Z,7.27
2018-04-19T11:05:58.120Z,6.84
2018-04-19T11:08:37.410Z,6.48
2018-04-19T11:11:16.880Z,5.43
2018-04-19T11:14:00.354Z,6.48
2018-04-19T11:16:40.741Z,6.72
2018-04-19T11:19:22.848Z,5.89
2018-04-19T11:22:01.975Z,6.09
2018-04-19T11:24:41.111Z,5.81
2018-04-19T11:27:28.227Z,5.78
2018-04-19T11:30:11.081Z,5.82
2018-04-19T11:32:59.629Z,6.20
2018-04-19T11:35:38.792Z,7.93
2018-04-19T11:38:19.051Z,6.54
2018-04-19T11:41:01.232Z,4.97
2018-04-19T11:43:41.077Z,4.95
2018-04-19T11:46:23.488Z,7.47
2018-04-19T11:49:02.062Z,7.52
2018-04-19T11:51:40.668Z,7.92
2018-04-19T11:54:25.472Z,7.64
2018-04-19T11:57:06.832Z,7.50
2018-04-19T11:59:45.113Z,6.62
2018-04-19T12:02:26.693Z,7.74
2018-04-19T12:05:08.942Z,8.46
2018-04-19T12:10:41.174Z,8.96
2018-04-19T12:13:25.728Z,8.69
2018-04-19T12:16:08.363Z,9.40
2018-04-19T12:18:47.497Z,8.44
2018-04-19T12:21:35.193Z,8.34
2018-04-19T12:27:08.307Z,8.03
2018-04-19T12:29:49.077Z,7.50
2018-04-19T12:32:27.623Z,7.00
2018-04-19T12:35:08.587Z,6.50
2018-04-19T12:37:47.603Z,6.59
2018-04-19T12:40:27.893Z,6.78
2018-04-19T12:43:06.181Z,6.62
2018-04-19T12:45:46.713Z,6.21
2018-04-19T12:48:27.032Z,6.58
2018-04-19T12:51:07.061Z,7.13
2018-04-19T12:53:46.517Z,7.46
2018-04-19T12:56:30.388Z,6.64
2018-04-19T12:59:09.541Z,6.58
2018-04-19T13:01:48.127Z,6.25
2018-04-19T13:04:30.721Z,6.92
2018-04-19T13:07:11.946Z,6.86
2018-04-19T13:09:51.330Z,6.05
2018-04-19T13:12:33.417Z,5.88
2018-04-19T13:15:13.458Z,6.07
2018-04-19T13:17:51.866Z,6.18
2018-04-19T13:20:34.524Z,6.74
2018-04-19T13:23:13.570Z,5.96
2018-04-19T13:25:52.044Z,5.51
2018-04-19T13:28:34.776Z,6.00
2018-04-19T13:31:13.313Z,6.30
2018-04-19T13:33:52.436Z,5.58
2018-04-19T13:36:35.310Z,5.69
2018-04-19T13:39:13.552Z,5.42
2018-04-19T13:41:53.959Z,5.30
2018-04-19T13:44:37.011Z,5.55
2018-04-19T13:47:15.223Z,5.46
2018-04-19T13:49:56.953Z,5.84
2018-04-19T13:52:35.716Z,5.35
2018-04-19T13:55:14.246Z,6.70
2018-04-19T13:57:56.705Z,6.43
2018-04-19T14:00:37.706Z,7.29
2018-04-19T14:03:17.080Z,6.85
2018-04-19T14:05:59.344Z,6.99
2018-04-19T14:08:37.925Z,7.38
2018-04-19T14:11:18.220Z,7.53
2018-04-19T14:14:02.408Z,7.21
2018-04-19T14:16:41.899Z,7.47
2018-04-19T14:19:23.461Z,6.74
2018-04-19T14:22:02.416Z,7.27
2018-04-19T14:24:40.552Z,7.51
2018-04-19T14:27:30.915Z,6.73
2018-04-19T14:30:18.331Z,7.06
2018-04-19T14:33:00.518Z,7.19
2018-04-19T14:35:39.392Z,6.94
2018-04-19T14:38:21.499Z,7.31
2018-04-19T14:40:59.928Z,6.82
2018-04-19T14:43:40.639Z,6.42
2018-04-19T14:46:20.535Z,7.49
2018-04-19T14:49:01.831Z,7.30
2018-04-19T14:51:42.578Z,8.10
2018-04-19T14:54:23.257Z,7.49
2018-04-19T14:57:02.673Z,6.95
2018-04-19T14:59:44.804Z,6.46
2018-04-19T15:02:24.735Z,6.69
2018-04-19T15:05:03.313Z,6.94
2018-04-19T15:07:47.000Z,7.49
2018-04-19T15:10:25.648Z,7.28
2018-04-19T15:13:07.000Z,7.09
2018-04-19T15:15:45.441Z,6.82
2018-04-19T15:18:25.210Z,6.39
2018-04-19T15:21:06.006Z,6.57
2018-04-19T15:23:45.572Z,7.31
2018-04-19T15:26:29.157Z,7.51
2018-04-19T15:29:08.656Z,7.75
2018-04-19T15:31:47.169Z,7.20
2018-04-19T15:34:30.945Z,7.49
2018-04-19T15:37:10.078Z,7.19
2018-04-19T15:39:48.535Z,7.27
2018-04-19T15:42:33.704Z,7.73
2018-04-19T15:45:12.112Z,7.66
2018-04-19T15:47:50.180Z,7.63
2018-04-19T15:50:31.470Z,7.39
2018-04-19T15:53:10.666Z,6.46
2018-04-19T15:55:48.940Z,6.66
2018-04-19T15:58:32.612Z,6.80
2018-04-19T16:01:11.469Z,6.96
2018-04-19T16:03:50.543Z,6.61
2018-04-19T16:06:33.408Z,6.45
2018-04-19T16:09:13.617Z,6.56
2018-04-19T16:11:53.083Z,6.44
2018-04-19T16:14:35.125Z,7.54
2018-04-19T16:17:13.892Z,7.19
2018-04-19T16:19:53.755Z,7.37
2018-04-19T16:22:34.962Z,6.65
2018-04-19T16:25:14.292Z,6.33
2018-04-19T16:27:56.577Z,6.81
2018-04-19T16:30:35.532Z,6.71
2018-04-19T16:33:14.035Z,6.35
2018-04-19T16:36:01.311Z,5.61
2018-04-19T16:38:39.994Z,5.06
2018-04-19T16:41:20.112Z,5.34
2018-04-19T16:44:01.783Z,5.95
2018-04-19T16:46:40.144Z,6.05
2018-04-19T16:49:19.808Z,5.55
2018-04-19T16:52:04.177Z,5.09
2018-04-19T16:54:42.752Z,4.66
2018-04-19T16:57:21.805Z,5.19
2018-04-19T17:00:04.564Z,5.30
2018-04-19T17:02:45.256Z,4.79
2018-04-19T17:05:24.528Z,4.58
2018-04-19T17:08:05.846Z,5.08
2018-04-19T17:10:44.445Z,5.24
2018-04-19T17:13:23.602Z,5.61
2018-04-19T17:16:04.875Z,5.78
2018-04-19T17:18:43.256Z,6.02
2018-04-19T17:21:21.819Z,5.41
2018-04-19T17:24:03.375Z,5.17
2018-04-19T17:26:41.750Z,5.24
2018-04-19T17:29:20.629Z,6.04
2018-04-19T17:32:02.810Z,5.64
2018-04-19T17:34:42.204Z,6.26
2018-04-19T17:37:20.426Z,6.63
2018-04-19T17:40:04.108Z,7.43
2018-04-19T17:42:43.501Z,7.82
2018-04-19T17:45:22.152Z,7.61
2018-04-19T17:48:06.253Z,7.88
2018-04-19T17:50:45.727Z,7.52
2018-04-19T17:53:24.299Z,8.06
2018-04-19T17:56:06.819Z,7.67
2018-04-19T17:58:50.035Z,7.96
2018-04-19T18:01:29.252Z,7.68
2018-04-19T18:04:09.966Z,7.83
2018-04-19T18:06:48.548Z,7.83
2018-04-19T18:09:27.450Z,8.49
2018-04-19T18:12:10.371Z,8.49
2018-04-19T18:14:50.315Z,8.39
2018-04-19T18:17:29.150Z,7.71
2018-04-19T18:20:07.733Z,7.58
2018-04-19T18:22:47.806Z,8.20
2018-04-19T18:25:30.880Z,8.43
2018-04-19T18:28:11.040Z,8.12
2018-04-19T18:30:56.003Z,8.74
2018-04-19T18:33:34.362Z,8.23
2018-04-19T18:36:12.659Z,8.72
2018-04-19T18:38:53.801Z,8.77
2018-04-19T18:41:32.178Z,8.70
2018-04-19T18:44:10.717Z,9.17
2018-04-19T18:46:51.936Z,10.10
2018-04-19T18:49:30.694Z,9.78
2018-04-19T18:52:15.525Z,9.92
2018-04-19T19:02:56.127Z,10.51
2018-04-19T19:05:52.384Z,11.11
2018-04-19T19:08:35.980Z,10.93
2018-04-19T19:11:26.468Z,10.70
2018-04-19T19:14:07.794Z,10.77
2018-04-19T19:16:58.847Z,10.66
2018-04-19T19:20:18.656Z,10.50
2018-04-19T19:23:08.352Z,10.33
2018-04-19T19:25:56.152Z,10.05
2018-04-19T19:31:34.771Z,10.37
2018-04-19T19:37:19.147Z,10.55
2018-04-19T19:42:58.275Z,10.82
2018-04-19T19:45:51.230Z,11.42
2018-04-19T19:48:34.154Z,11.11
2018-04-19T19:51:26.167Z,10.91
2018-04-19T19:54:16.238Z,11.01
2018-04-19T19:57:09.732Z,10.78
2018-04-19T20:00:07.064Z,12.11
2018-04-19T20:07:58.075Z,11.54
2018-04-19T20:10:47.386Z,11.90
2018-04-19T20:13:26.395Z,11.98
2018-04-19T20:16:05.802Z,12.12
2018-04-19T20:21:42.195Z,13.18
2018-04-19T20:24:24.792Z,13.14
2018-04-19T20:27:05.183Z,12.87
2018-04-19T20:29:44.367Z,12.93
2018-04-19T20:32:24.874Z,12.80
2018-04-19T20:35:03.965Z,12.65
2018-04-19T20:37:43.121Z,12.63
2018-04-19T20:40:23.831Z,13.22
2018-04-19T20:43:02.271Z,13.14
2018-04-19T20:45:42.309Z,13.33
2018-04-19T20:48:21.238Z,13.40
2018-04-19T20:51:00.664Z,13.40
2018-04-19T20:53:44.592Z,13.66
2018-04-19T20:56:27.617Z,13.43
2018-04-19T20:59:08.705Z,13.37
2018-04-19T21:01:49.620Z,13.53
2018-04-19T21:04:28.255Z,13.58
2018-04-19T21:07:07.859Z,13.89
2018-04-19T21:09:47.909Z,14.11
2018-04-19T21:12:28.001Z,14.08
2018-04-19T21:15:08.921Z,14.01
2018-04-19T21:17:48.665Z,14.23
2018-04-19T21:20:31.305Z,14.57
2018-04-19T21:23:10.729Z,14.64
2018-04-19T21:25:49.716Z,14.46
2018-04-19T21:28:33.930Z,14.46
2018-04-19T21:31:13.342Z,14.47
2018-04-19T21:33:56.841Z,14.78
2018-04-19T21:36:36.033Z,15.10
2018-04-19T21:39:15.281Z,15.15
2018-04-19T21:41:55.799Z,14.83
2018-04-19T21:44:34.968Z,14.92
2018-04-19T21:47:14.894Z,15.00
2018-04-19T21:49:54.264Z,15.14
2018-04-19T21:52:32.864Z,14.66
2018-04-19T21:55:16.491Z,14.79
2018-04-19T21:57:55.001Z,14.78
2018-04-19T22:00:33.322Z,14.63
2018-04-19T22:03:16.437Z,14.86
2018-04-19T22:05:54.756Z,15.10
2018-04-19T22:08:34.524Z,15.36
2018-04-19T22:11:17.409Z,15.70
2018-04-19T22:13:57.205Z,15.56
2018-04-19T22:16:35.828Z,15.58
2018-04-19T22:19:22.135Z,15.30
2018-04-19T22:22:00.811Z,15.05
2018-04-19T22:24:39.631Z,15.29
2018-04-19T22:27:20.307Z,15.77
2018-04-19T22:30:00.339Z,15.33
2018-04-19T22:32:39.669Z,15.67
2018-04-19T22:35:20.667Z,15.15
2018-04-19T22:37:59.351Z,14.97
2018-04-19T22:40:38.075Z,15.06
2018-04-19T22:43:20.277Z,15.09
2018-04-19T22:45:58.964Z,15.33
2018-04-19T22:48:37.482Z,15.72
2018-04-19T22:51:18.737Z,15.33
2018-04-19T22:53:57.653Z,15.50
2018-04-19T22:56:36.997Z,15.57
2018-04-19T22:59:17.370Z,15.50
2018-04-19T23:01:56.061Z,15.54
2018-04-19T23:04:35.108Z,15.34
2018-04-19T23:07:14.875Z,15.53
2018-04-19T23:09:54.040Z,15.27
2018-04-19T23:12:33.775Z,15.46
2018-04-19T23:15:16.219Z,15.36
2018-04-19T23:17:56.305Z,15.62
2018-04-19T23:20:37.863Z,15.75
2018-04-19T23:23:17.536Z,15.94
2018-04-19T23:25:57.617Z,15.72
2018-04-19T23:28:45.434Z,15.45
2018-04-19T23:31:25.435Z,15.40
2018-04-19T23:34:04.113Z,15.59
2018-04-19T23:36:47.091Z,15.77
2018-04-19T23:39:26.056Z,15.62
2018-04-19T23:42:04.573Z,15.52
2018-04-19T23:44:48.088Z,15.58
2018-04-19T23:47:27.432Z,15.65
2018-04-19T23:50:06.292Z,15.94
2018-04-19T23:52:47.768Z,15.75
2018-04-19T23:55:25.990Z,16.02
2018-04-19T23:58:06.125Z,16.04
